Point Lay, Alaska
Current Conditions -  °F | °C
As of 2:56 PM on Saturday 22 Nov 2014 (Local Time) from PPIZ Reporting Station
Light Snow Light Snow  
Wind Chill:   Ceiling: NA
Heat Index:   Visibility: 0mi
Dew Point:   Wind: 0mph
Humidity: 88%   Direction: NA
Pressure: 29.61"   Gusts: NA
Location:  69.72°N, 163.09°W
Report Text: PPIZ 222356Z AUTO 00000KT M1/4SM -SN FZFG M15/M17 A2961 RMK AO2 TSNO 50002 60000 T11501166 11127 21155 P0000 SLP030 $
Loading
Personal Weather Stations






























Interactive Weather Map New forecast layout! Learn more

10-Day Weather Forecast

Advertisements
Track Severe Weather on mobile